sensor_id;sensor_type;location;lat;lon;timestamp;P1;durP1;ratioP1;P2;durP2;ratioP2
52586;SDS011;38480;52.724;6.436;2023-07-13T00:01:19;8.97;;;3.30;;
52586;SDS011;38480;52.724;6.436;2023-07-13T00:03:47;12.13;;;3.20;;
52586;SDS011;38480;52.724;6.436;2023-07-13T00:06:13;11.33;;;2.83;;
52586;SDS011;38480;52.724;6.436;2023-07-13T00:08:39;10.87;;;3.30;;
52586;SDS011;38480;52.724;6.436;2023-07-13T00:11:06;9.87;;;2.90;;
52586;SDS011;38480;52.724;6.436;2023-07-13T00:13:32;12.27;;;2.80;;
52586;SDS011;38480;52.724;6.436;2023-07-13T00:15:58;15.10;;;4.07;;
52586;SDS011;38480;52.724;6.436;2023-07-13T00:18:26;14.47;;;3.47;;
52586;SDS011;38480;52.724;6.436;2023-07-13T00:20:55;10.13;;;3.77;;
52586;SDS011;38480;52.724;6.436;2023-07-13T00:23:22;14.33;;;3.50;;
52586;SDS011;38480;52.724;6.436;2023-07-13T00:25:48;13.63;;;2.90;;
52586;SDS011;38480;52.724;6.436;2023-07-13T00:28:15;12.50;;;3.00;;
52586;SDS011;38480;52.724;6.436;2023-07-13T00:30:41;9.83;;;2.50;;
52586;SDS011;38480;52.724;6.436;2023-07-13T00:33:08;13.47;;;3.60;;
52586;SDS011;38480;52.724;6.436;2023-07-13T00:35:34;12.43;;;2.97;;
52586;SDS011;38480;52.724;6.436;2023-07-13T00:38:00;14.63;;;2.80;;
52586;SDS011;38480;52.724;6.436;2023-07-13T00:40:26;15.17;;;2.60;;
52586;SDS011;38480;52.724;6.436;2023-07-13T00:42:53;10.87;;;2.73;;
52586;SDS011;38480;52.724;6.436;2023-07-13T00:47:45;11.07;;;2.50;;
52586;SDS011;38480;52.724;6.436;2023-07-13T00:50:12;12.43;;;2.90;;
52586;SDS011;38480;52.724;6.436;2023-07-13T00:52:41;14.87;;;3.37;;
52586;SDS011;38480;52.724;6.436;2023-07-13T00:55:08;10.93;;;3.00;;
52586;SDS011;38480;52.724;6.436;2023-07-13T00:57:35;11.33;;;2.53;;
52586;SDS011;38480;52.724;6.436;2023-07-13T01:00:02;11.23;;;3.17;;
52586;SDS011;38480;52.724;6.436;2023-07-13T01:02:31;9.90;;;2.40;;
52586;SDS011;38480;52.724;6.436;2023-07-13T01:04:57;14.07;;;3.83;;
52586;SDS011;38480;52.724;6.436;2023-07-13T01:07:23;19.63;;;3.20;;
52586;SDS011;38480;52.724;6.436;2023-07-13T01:09:50;13.67;;;3.00;;
52586;SDS011;38480;52.724;6.436;2023-07-13T01:12:16;13.20;;;3.20;;
52586;SDS011;38480;52.724;6.436;2023-07-13T01:14:42;15.97;;;3.63;;
52586;SDS011;38480;52.724;6.436;2023-07-13T01:17:10;10.77;;;3.10;;
52586;SDS011;38480;52.724;6.436;2023-07-13T01:19:38;15.87;;;2.97;;
52586;SDS011;38480;52.724;6.436;2023-07-13T01:22:05;13.30;;;3.70;;
52586;SDS011;38480;52.724;6.436;2023-07-13T01:24:33;12.73;;;3.13;;
52586;SDS011;38480;52.724;6.436;2023-07-13T01:26:59;11.50;;;3.43;;
52586;SDS011;38480;52.724;6.436;2023-07-13T01:29:25;12.90;;;3.47;;
52586;SDS011;38480;52.724;6.436;2023-07-13T01:31:51;16.17;;;3.53;;
52586;SDS011;38480;52.724;6.436;2023-07-13T01:34:17;10.00;;;3.20;;
52586;SDS011;38480;52.724;6.436;2023-07-13T01:36:43;13.67;;;3.97;;
52586;SDS011;38480;52.724;6.436;2023-07-13T01:39:09;16.63;;;3.60;;
52586;SDS011;38480;52.724;6.436;2023-07-13T01:41:36;15.00;;;3.30;;
52586;SDS011;38480;52.724;6.436;2023-07-13T01:44:02;10.30;;;3.10;;
52586;SDS011;38480;52.724;6.436;2023-07-13T01:46:28;14.80;;;4.23;;
52586;SDS011;38480;52.724;6.436;2023-07-13T01:48:54;14.40;;;4.43;;
52586;SDS011;38480;52.724;6.436;2023-07-13T01:51:20;14.80;;;3.33;;
52586;SDS011;38480;52.724;6.436;2023-07-13T01:53:46;17.07;;;3.93;;
52586;SDS011;38480;52.724;6.436;2023-07-13T01:56:12;14.43;;;4.30;;
52586;SDS011;38480;52.724;6.436;2023-07-13T01:58:38;13.97;;;3.80;;
52586;SDS011;38480;52.724;6.436;2023-07-13T02:01:04;13.57;;;3.27;;
52586;SDS011;38480;52.724;6.436;2023-07-13T02:03:30;21.23;;;3.73;;
52586;SDS011;38480;52.724;6.436;2023-07-13T02:05:56;12.60;;;3.43;;
52586;SDS011;38480;52.724;6.436;2023-07-13T02:08:22;13.70;;;4.23;;
52586;SDS011;38480;52.724;6.436;2023-07-13T02:10:48;13.67;;;2.93;;
52586;SDS011;38480;52.724;6.436;2023-07-13T02:13:14;17.63;;;4.27;;
52586;SDS011;38480;52.724;6.436;2023-07-13T02:15:40;18.17;;;3.63;;
52586;SDS011;38480;52.724;6.436;2023-07-13T02:18:06;8.17;;;3.23;;
52586;SDS011;38480;52.724;6.436;2023-07-13T02:20:32;10.00;;;3.03;;
52586;SDS011;38480;52.724;6.436;2023-07-13T02:22:58;15.00;;;3.93;;
52586;SDS011;38480;52.724;6.436;2023-07-13T02:25:24;14.07;;;4.13;;
52586;SDS011;38480;52.724;6.436;2023-07-13T02:27:51;17.97;;;4.07;;
52586;SDS011;38480;52.724;6.436;2023-07-13T02:30:17;23.47;;;4.50;;
52586;SDS011;38480;52.724;6.436;2023-07-13T02:32:44;16.77;;;4.73;;
52586;SDS011;38480;52.724;6.436;2023-07-13T02:35:10;15.67;;;4.03;;
52586;SDS011;38480;52.724;6.436;2023-07-13T02:37:36;14.17;;;3.40;;
52586;SDS011;38480;52.724;6.436;2023-07-13T02:40:02;15.60;;;3.90;;
52586;SDS011;38480;52.724;6.436;2023-07-13T02:42:33;17.07;;;4.17;;
52586;SDS011;38480;52.724;6.436;2023-07-13T02:44:59;14.80;;;4.00;;
52586;SDS011;38480;52.724;6.436;2023-07-13T02:47:25;14.33;;;4.23;;
52586;SDS011;38480;52.724;6.436;2023-07-13T02:49:51;20.63;;;4.40;;
52586;SDS011;38480;52.724;6.436;2023-07-13T02:52:17;19.03;;;4.83;;
52586;SDS011;38480;52.724;6.436;2023-07-13T02:54:43;13.93;;;4.30;;
52586;SDS011;38480;52.724;6.436;2023-07-13T02:57:09;20.00;;;3.80;;
52586;SDS011;38480;52.724;6.436;2023-07-13T02:59:36;18.07;;;4.57;;
52586;SDS011;38480;52.724;6.436;2023-07-13T03:02:02;14.63;;;4.97;;
52586;SDS011;38480;52.724;6.436;2023-07-13T03:04:28;22.57;;;4.27;;
52586;SDS011;38480;52.724;6.436;2023-07-13T03:06:54;14.87;;;4.50;;
52586;SDS011;38480;52.724;6.436;2023-07-13T03:09:23;20.30;;;4.87;;
52586;SDS011;38480;52.724;6.436;2023-07-13T03:11:49;19.13;;;5.03;;
52586;SDS011;38480;52.724;6.436;2023-07-13T03:14:15;20.63;;;4.77;;
52586;SDS011;38480;52.724;6.436;2023-07-13T03:16:41;18.33;;;5.13;;
52586;SDS011;38480;52.724;6.436;2023-07-13T03:19:07;18.67;;;5.47;;
52586;SDS011;38480;52.724;6.436;2023-07-13T03:21:34;14.70;;;4.07;;
52586;SDS011;38480;52.724;6.436;2023-07-13T03:24:00;16.93;;;5.80;;
52586;SDS011;38480;52.724;6.436;2023-07-13T03:26:26;17.63;;;4.50;;
52586;SDS011;38480;52.724;6.436;2023-07-13T03:28:52;15.57;;;4.70;;
52586;SDS011;38480;52.724;6.436;2023-07-13T03:31:19;16.63;;;4.00;;
52586;SDS011;38480;52.724;6.436;2023-07-13T03:33:45;12.80;;;4.20;;
52586;SDS011;38480;52.724;6.436;2023-07-13T03:36:15;17.57;;;4.27;;
52586;SDS011;38480;52.724;6.436;2023-07-13T03:38:44;16.52;;;4.75;;
52586;SDS011;38480;52.724;6.436;2023-07-13T03:41:11;17.37;;;4.47;;
52586;SDS011;38480;52.724;6.436;2023-07-13T03:43:37;19.93;;;4.53;;
52586;SDS011;38480;52.724;6.436;2023-07-13T03:46:03;22.53;;;4.63;;
52586;SDS011;38480;52.724;6.436;2023-07-13T03:48:29;13.33;;;4.23;;
52586;SDS011;38480;52.724;6.436;2023-07-13T03:50:55;19.50;;;4.43;;
52586;SDS011;38480;52.724;6.436;2023-07-13T03:53:21;12.73;;;4.43;;
52586;SDS011;38480;52.724;6.436;2023-07-13T03:55:47;12.20;;;4.00;;
52586;SDS011;38480;52.724;6.436;2023-07-13T04:00:51;14.20;;;4.37;;
52586;SDS011;38480;52.724;6.436;2023-07-13T04:03:18;23.30;;;4.47;;
52586;SDS011;38480;52.724;6.436;2023-07-13T04:05:44;16.77;;;4.63;;
52586;SDS011;38480;52.724;6.436;2023-07-13T04:08:10;17.23;;;5.83;;
52586;SDS011;38480;52.724;6.436;2023-07-13T04:10:36;13.77;;;4.40;;
52586;SDS011;38480;52.724;6.436;2023-07-13T04:13:02;15.23;;;4.30;;
52586;SDS011;38480;52.724;6.436;2023-07-13T04:15:29;13.17;;;3.50;;
52586;SDS011;38480;52.724;6.436;2023-07-13T04:17:55;16.60;;;3.93;;
52586;SDS011;38480;52.724;6.436;2023-07-13T04:20:22;15.97;;;4.20;;
52586;SDS011;38480;52.724;6.436;2023-07-13T04:22:49;16.87;;;3.87;;
52586;SDS011;38480;52.724;6.436;2023-07-13T04:25:15;14.27;;;4.03;;
52586;SDS011;38480;52.724;6.436;2023-07-13T04:27:41;14.47;;;3.73;;
52586;SDS011;38480;52.724;6.436;2023-07-13T04:30:07;12.40;;;3.87;;
52586;SDS011;38480;52.724;6.436;2023-07-13T04:32:33;11.03;;;3.83;;
52586;SDS011;38480;52.724;6.436;2023-07-13T04:34:59;18.90;;;4.47;;
52586;SDS011;38480;52.724;6.436;2023-07-13T04:37:26;14.60;;;4.40;;
52586;SDS011;38480;52.724;6.436;2023-07-13T04:39:52;16.43;;;4.67;;
52586;SDS011;38480;52.724;6.436;2023-07-13T04:42:18;14.77;;;4.33;;
52586;SDS011;38480;52.724;6.436;2023-07-13T04:44:51;11.57;;;3.60;;
52586;SDS011;38480;52.724;6.436;2023-07-13T04:47:17;19.57;;;4.63;;
52586;SDS011;38480;52.724;6.436;2023-07-13T04:49:43;21.70;;;3.87;;
52586;SDS011;38480;52.724;6.436;2023-07-13T04:52:09;13.87;;;4.10;;
52586;SDS011;38480;52.724;6.436;2023-07-13T04:54:35;15.87;;;5.20;;
52586;SDS011;38480;52.724;6.436;2023-07-13T04:57:03;10.87;;;3.90;;
52586;SDS011;38480;52.724;6.436;2023-07-13T04:59:31;11.50;;;4.67;;
52586;SDS011;38480;52.724;6.436;2023-07-13T05:01:57;13.00;;;3.87;;
52586;SDS011;38480;52.724;6.436;2023-07-13T05:04:23;19.63;;;5.60;;
52586;SDS011;38480;52.724;6.436;2023-07-13T05:06:49;15.27;;;4.33;;
52586;SDS011;38480;52.724;6.436;2023-07-13T05:09:15;19.40;;;4.40;;
52586;SDS011;38480;52.724;6.436;2023-07-13T05:11:41;13.70;;;4.47;;
52586;SDS011;38480;52.724;6.436;2023-07-13T05:14:07;14.90;;;5.17;;
52586;SDS011;38480;52.724;6.436;2023-07-13T05:16:34;24.17;;;5.97;;
52586;SDS011;38480;52.724;6.436;2023-07-13T05:19:00;19.70;;;4.20;;
52586;SDS011;38480;52.724;6.436;2023-07-13T05:21:27;17.20;;;4.20;;
52586;SDS011;38480;52.724;6.436;2023-07-13T05:23:53;17.73;;;4.10;;
52586;SDS011;38480;52.724;6.436;2023-07-13T05:26:19;17.77;;;4.83;;
52586;SDS011;38480;52.724;6.436;2023-07-13T05:28:45;16.57;;;6.03;;
52586;SDS011;38480;52.724;6.436;2023-07-13T05:31:12;20.07;;;5.40;;
52586;SDS011;38480;52.724;6.436;2023-07-13T05:33:38;13.13;;;4.53;;
52586;SDS011;38480;52.724;6.436;2023-07-13T05:36:04;14.50;;;5.47;;
52586;SDS011;38480;52.724;6.436;2023-07-13T05:38:32;16.80;;;5.33;;
52586;SDS011;38480;52.724;6.436;2023-07-13T05:40:58;17.40;;;5.33;;
52586;SDS011;38480;52.724;6.436;2023-07-13T05:43:24;11.63;;;4.70;;
52586;SDS011;38480;52.724;6.436;2023-07-13T05:45:52;23.47;;;4.27;;
52586;SDS011;38480;52.724;6.436;2023-07-13T05:48:18;17.03;;;4.47;;
52586;SDS011;38480;52.724;6.436;2023-07-13T05:50:44;13.80;;;3.97;;
52586;SDS011;38480;52.724;6.436;2023-07-13T05:53:11;17.80;;;5.23;;
52586;SDS011;38480;52.724;6.436;2023-07-13T05:55:40;21.80;;;5.50;;
52586;SDS011;38480;52.724;6.436;2023-07-13T05:58:07;12.63;;;4.40;;
52586;SDS011;38480;52.724;6.436;2023-07-13T06:00:32;18.47;;;5.30;;
52586;SDS011;38480;52.724;6.436;2023-07-13T06:02:58;15.80;;;4.27;;
52586;SDS011;38480;52.724;6.436;2023-07-13T06:05:24;16.10;;;4.63;;
52586;SDS011;38480;52.724;6.436;2023-07-13T06:07:50;11.53;;;4.37;;
52586;SDS011;38480;52.724;6.436;2023-07-13T06:10:16;12.23;;;3.97;;
52586;SDS011;38480;52.724;6.436;2023-07-13T06:12:42;15.43;;;4.47;;
52586;SDS011;38480;52.724;6.436;2023-07-13T06:15:08;16.97;;;3.80;;
52586;SDS011;38480;52.724;6.436;2023-07-13T06:17:34;14.27;;;3.53;;
52586;SDS011;38480;52.724;6.436;2023-07-13T06:20:00;15.20;;;3.87;;
52586;SDS011;38480;52.724;6.436;2023-07-13T06:22:26;15.20;;;3.47;;
52586;SDS011;38480;52.724;6.436;2023-07-13T06:24:52;12.07;;;3.53;;
52586;SDS011;38480;52.724;6.436;2023-07-13T06:27:18;12.40;;;3.93;;
52586;SDS011;38480;52.724;6.436;2023-07-13T06:29:44;11.50;;;3.37;;
52586;SDS011;38480;52.724;6.436;2023-07-13T06:32:10;12.97;;;3.43;;
52586;SDS011;38480;52.724;6.436;2023-07-13T06:34:36;13.13;;;3.80;;
52586;SDS011;38480;52.724;6.436;2023-07-13T06:37:02;13.83;;;3.33;;
52586;SDS011;38480;52.724;6.436;2023-07-13T06:39:28;15.40;;;3.10;;
52586;SDS011;38480;52.724;6.436;2023-07-13T06:41:54;11.10;;;3.33;;
52586;SDS011;38480;52.724;6.436;2023-07-13T06:44:20;12.60;;;3.20;;
52586;SDS011;38480;52.724;6.436;2023-07-13T06:46:46;13.17;;;4.23;;
52586;SDS011;38480;52.724;6.436;2023-07-13T06:49:12;12.53;;;3.83;;
52586;SDS011;38480;52.724;6.436;2023-07-13T06:51:38;13.07;;;3.23;;
52586;SDS011;38480;52.724;6.436;2023-07-13T06:54:04;15.57;;;3.80;;
52586;SDS011;38480;52.724;6.436;2023-07-13T06:56:30;12.03;;;3.30;;
52586;SDS011;38480;52.724;6.436;2023-07-13T06:58:56;23.83;;;4.63;;
52586;SDS011;38480;52.724;6.436;2023-07-13T07:01:22;11.23;;;3.47;;
52586;SDS011;38480;52.724;6.436;2023-07-13T07:03:48;9.80;;;3.20;;
52586;SDS011;38480;52.724;6.436;2023-07-13T07:06:18;12.27;;;3.87;;
52586;SDS011;38480;52.724;6.436;2023-07-13T07:08:45;11.50;;;3.97;;
52586;SDS011;38480;52.724;6.436;2023-07-13T07:11:16;12.73;;;3.53;;
52586;SDS011;38480;52.724;6.436;2023-07-13T07:13:42;11.67;;;3.27;;
52586;SDS011;38480;52.724;6.436;2023-07-13T07:16:08;18.53;;;3.67;;
52586;SDS011;38480;52.724;6.436;2023-07-13T07:18:34;11.30;;;3.70;;
52586;SDS011;38480;52.724;6.436;2023-07-13T07:21:01;12.00;;;3.13;;
52586;SDS011;38480;52.724;6.436;2023-07-13T07:23:27;13.17;;;3.80;;
52586;SDS011;38480;52.724;6.436;2023-07-13T07:25:53;11.60;;;3.13;;
52586;SDS011;38480;52.724;6.436;2023-07-13T07:28:19;15.17;;;3.97;;
52586;SDS011;38480;52.724;6.436;2023-07-13T07:30:46;15.37;;;3.37;;
52586;SDS011;38480;52.724;6.436;2023-07-13T07:33:12;16.60;;;3.70;;
52586;SDS011;38480;52.724;6.436;2023-07-13T07:35:38;16.27;;;4.23;;
52586;SDS011;38480;52.724;6.436;2023-07-13T07:38:04;10.57;;;3.77;;
52586;SDS011;38480;52.724;6.436;2023-07-13T07:40:30;16.90;;;3.50;;
52586;SDS011;38480;52.724;6.436;2023-07-13T07:42:56;12.50;;;4.10;;
52586;SDS011;38480;52.724;6.436;2023-07-13T07:45:22;12.60;;;4.00;;
52586;SDS011;38480;52.724;6.436;2023-07-13T07:47:49;14.50;;;4.00;;
52586;SDS011;38480;52.724;6.436;2023-07-13T07:50:15;15.13;;;4.30;;
52586;SDS011;38480;52.724;6.436;2023-07-13T07:52:41;11.77;;;3.67;;
52586;SDS011;38480;52.724;6.436;2023-07-13T07:55:09;12.60;;;5.13;;
52586;SDS011;38480;52.724;6.436;2023-07-13T07:57:35;11.53;;;4.43;;
52586;SDS011;38480;52.724;6.436;2023-07-13T08:00:01;12.50;;;3.50;;
52586;SDS011;38480;52.724;6.436;2023-07-13T08:02:27;14.63;;;4.63;;
52586;SDS011;38480;52.724;6.436;2023-07-13T08:04:53;15.53;;;4.57;;
52586;SDS011;38480;52.724;6.436;2023-07-13T08:07:19;10.77;;;3.83;;
52586;SDS011;38480;52.724;6.436;2023-07-13T08:09:45;9.87;;;3.50;;
52586;SDS011;38480;52.724;6.436;2023-07-13T08:12:12;13.17;;;3.60;;
52586;SDS011;38480;52.724;6.436;2023-07-13T08:14:38;9.77;;;3.67;;
52586;SDS011;38480;52.724;6.436;2023-07-13T08:17:04;16.20;;;3.93;;
52586;SDS011;38480;52.724;6.436;2023-07-13T08:19:30;14.93;;;4.03;;
52586;SDS011;38480;52.724;6.436;2023-07-13T08:21:56;12.87;;;4.10;;
52586;SDS011;38480;52.724;6.436;2023-07-13T08:24:23;13.10;;;4.23;;
52586;SDS011;38480;52.724;6.436;2023-07-13T08:26:50;15.53;;;4.77;;
52586;SDS011;38480;52.724;6.436;2023-07-13T08:29:16;10.67;;;3.80;;
52586;SDS011;38480;52.724;6.436;2023-07-13T08:31:42;8.50;;;3.73;;
52586;SDS011;38480;52.724;6.436;2023-07-13T08:34:08;15.07;;;4.73;;
52586;SDS011;38480;52.724;6.436;2023-07-13T08:36:34;13.00;;;4.43;;
52586;SDS011;38480;52.724;6.436;2023-07-13T08:39:00;10.27;;;3.73;;
52586;SDS011;38480;52.724;6.436;2023-07-13T08:41:26;12.87;;;3.93;;
52586;SDS011;38480;52.724;6.436;2023-07-13T08:43:54;13.67;;;4.47;;
52586;SDS011;38480;52.724;6.436;2023-07-13T08:46:26;16.47;;;4.77;;
52586;SDS011;38480;52.724;6.436;2023-07-13T08:48:56;14.47;;;4.70;;
52586;SDS011;38480;52.724;6.436;2023-07-13T08:53:49;48.50;;;8.20;;
52586;SDS011;38480;52.724;6.436;2023-07-13T08:56:17;60.00;;;9.27;;
52586;SDS011;38480;52.724;6.436;2023-07-13T08:58:44;119.50;;;11.07;;
52586;SDS011;38480;52.724;6.436;2023-07-13T09:01:31;105.87;;;8.17;;
52586;SDS011;38480;52.724;6.436;2023-07-13T09:04:09;4.83;;;1.40;;
52586;SDS011;38480;52.724;6.436;2023-07-13T09:06:40;12.77;;;4.17;;
52586;SDS011;38480;52.724;6.436;2023-07-13T09:09:42;48.23;;;5.73;;
52586;SDS011;38480;52.724;6.436;2023-07-13T09:12:02;19.47;;;4.20;;
52586;SDS011;38480;52.724;6.436;2023-07-13T09:17:03;13.90;;;4.50;;
52586;SDS011;38480;52.724;6.436;2023-07-13T09:19:30;25.63;;;6.13;;
52586;SDS011;38480;52.724;6.436;2023-07-13T09:21:57;27.27;;;5.87;;
52586;SDS011;38480;52.724;6.436;2023-07-13T09:26:51;9.57;;;3.97;;
52586;SDS011;38480;52.724;6.436;2023-07-13T09:29:22;6.90;;;4.70;;
52586;SDS011;38480;52.724;6.436;2023-07-13T09:31:53;7.73;;;4.97;;
52586;SDS011;38480;52.724;6.436;2023-07-13T09:34:19;10.47;;;6.30;;
52586;SDS011;38480;52.724;6.436;2023-07-13T09:36:45;9.60;;;5.60;;
52586;SDS011;38480;52.724;6.436;2023-07-13T09:39:14;8.50;;;4.90;;
52586;SDS011;38480;52.724;6.436;2023-07-13T09:46:55;11.60;;;5.87;;
52586;SDS011;38480;52.724;6.436;2023-07-13T09:49:25;11.90;;;7.13;;
52586;SDS011;38480;52.724;6.436;2023-07-13T09:51:59;11.60;;;7.37;;
52586;SDS011;38480;52.724;6.436;2023-07-13T09:54:25;8.63;;;5.90;;
52586;SDS011;38480;52.724;6.436;2023-07-13T09:56:55;12.50;;;7.30;;
52586;SDS011;38480;52.724;6.436;2023-07-13T09:59:22;11.93;;;6.77;;
52586;SDS011;38480;52.724;6.436;2023-07-13T10:01:49;10.63;;;7.27;;
52586;SDS011;38480;52.724;6.436;2023-07-13T10:04:19;11.33;;;5.77;;
52586;SDS011;38480;52.724;6.436;2023-07-13T10:06:45;12.93;;;7.77;;
52586;SDS011;38480;52.724;6.436;2023-07-13T10:09:15;14.03;;;8.53;;
52586;SDS011;38480;52.724;6.436;2023-07-13T10:11:42;11.07;;;6.03;;
52586;SDS011;38480;52.724;6.436;2023-07-13T10:14:11;17.00;;;8.87;;
52586;SDS011;38480;52.724;6.436;2023-07-13T10:16:38;15.00;;;11.10;;
52586;SDS011;38480;52.724;6.436;2023-07-13T10:19:07;10.07;;;6.00;;
52586;SDS011;38480;52.724;6.436;2023-07-13T10:21:39;10.30;;;7.43;;
52586;SDS011;38480;52.724;6.436;2023-07-13T10:24:12;8.37;;;5.43;;
52586;SDS011;38480;52.724;6.436;2023-07-13T10:29:09;9.23;;;5.53;;
52586;SDS011;38480;52.724;6.436;2023-07-13T10:31:37;10.37;;;6.80;;
52586;SDS011;38480;52.724;6.436;2023-07-13T10:34:03;11.37;;;6.53;;
52586;SDS011;38480;52.724;6.436;2023-07-13T10:36:34;9.57;;;5.87;;
52586;SDS011;38480;52.724;6.436;2023-07-13T10:39:04;8.93;;;5.67;;
52586;SDS011;38480;52.724;6.436;2023-07-13T10:41:32;13.73;;;7.30;;
52586;SDS011;38480;52.724;6.436;2023-07-13T10:43:59;9.23;;;7.00;;
52586;SDS011;38480;52.724;6.436;2023-07-13T10:46:26;11.77;;;7.97;;
52586;SDS011;38480;52.724;6.436;2023-07-13T10:48:54;12.20;;;8.37;;
52586;SDS011;38480;52.724;6.436;2023-07-13T10:51:21;14.17;;;9.90;;
52586;SDS011;38480;52.724;6.436;2023-07-13T10:54:10;15.77;;;8.60;;
52586;SDS011;38480;52.724;6.436;2023-07-13T10:56:34;31.23;;;13.67;;
52586;SDS011;38480;52.724;6.436;2023-07-13T10:59:01;18.43;;;11.23;;
52586;SDS011;38480;52.724;6.436;2023-07-13T11:01:38;11.93;;;7.00;;
52586;SDS011;38480;52.724;6.436;2023-07-13T11:04:05;10.37;;;5.53;;
52586;SDS011;38480;52.724;6.436;2023-07-13T11:06:38;8.67;;;5.43;;
52586;SDS011;38480;52.724;6.436;2023-07-13T11:11:44;8.80;;;4.80;;
52586;SDS011;38480;52.724;6.436;2023-07-13T11:16:46;6.43;;;3.33;;
52586;SDS011;38480;52.724;6.436;2023-07-13T11:24:28;11.93;;;4.97;;
52586;SDS011;38480;52.724;6.436;2023-07-13T11:26:55;6.60;;;5.10;;
52586;SDS011;38480;52.724;6.436;2023-07-13T11:29:36;7.33;;;5.53;;
52586;SDS011;38480;52.724;6.436;2023-07-13T11:32:20;8.30;;;3.90;;
52586;SDS011;38480;52.724;6.436;2023-07-13T11:34:47;9.27;;;4.20;;
52586;SDS011;38480;52.724;6.436;2023-07-13T11:37:14;12.03;;;4.93;;
52586;SDS011;38480;52.724;6.436;2023-07-13T11:39:42;6.03;;;4.50;;
52586;SDS011;38480;52.724;6.436;2023-07-13T11:42:10;9.77;;;4.57;;
52586;SDS011;38480;52.724;6.436;2023-07-13T11:44:41;8.63;;;3.70;;
52586;SDS011;38480;52.724;6.436;2023-07-13T11:47:08;8.40;;;4.17;;
52586;SDS011;38480;52.724;6.436;2023-07-13T11:49:41;8.30;;;3.80;;
52586;SDS011;38480;52.724;6.436;2023-07-13T11:52:11;7.97;;;3.58;;
52586;SDS011;38480;52.724;6.436;2023-07-13T11:54:46;8.20;;;4.57;;
52586;SDS011;38480;52.724;6.436;2023-07-13T11:57:28;10.48;;;4.47;;
52586;SDS011;38480;52.724;6.436;2023-07-13T11:59:56;6.30;;;3.80;;
52586;SDS011;38480;52.724;6.436;2023-07-13T12:02:31;7.43;;;3.33;;
52586;SDS011;38480;52.724;6.436;2023-07-13T12:04:58;9.33;;;3.67;;
52586;SDS011;38480;52.724;6.436;2023-07-13T12:07:27;9.07;;;3.80;;
52586;SDS011;38480;52.724;6.436;2023-07-13T12:09:54;6.70;;;3.03;;
52586;SDS011;38480;52.724;6.436;2023-07-13T12:12:28;4.93;;;2.67;;
52586;SDS011;38480;52.724;6.436;2023-07-13T12:14:55;5.07;;;2.67;;
52586;SDS011;38480;52.724;6.436;2023-07-13T12:17:22;9.10;;;2.43;;
52586;SDS011;38480;52.724;6.436;2023-07-13T12:19:48;6.60;;;1.90;;
52586;SDS011;38480;52.724;6.436;2023-07-13T12:22:15;5.07;;;2.10;;
52586;SDS011;38480;52.724;6.436;2023-07-13T12:24:42;7.00;;;2.03;;
52586;SDS011;38480;52.724;6.436;2023-07-13T12:27:22;6.00;;;1.80;;
52586;SDS011;38480;52.724;6.436;2023-07-13T12:29:52;7.53;;;2.47;;
52586;SDS011;38480;52.724;6.436;2023-07-13T12:32:21;5.30;;;1.83;;
52586;SDS011;38480;52.724;6.436;2023-07-13T12:37:44;6.68;;;1.70;;
52586;SDS011;38480;52.724;6.436;2023-07-13T12:40:17;7.35;;;1.95;;
52586;SDS011;38480;52.724;6.436;2023-07-13T12:42:45;3.65;;;1.30;;
52586;SDS011;38480;52.724;6.436;2023-07-13T12:45:20;4.13;;;2.10;;
52586;SDS011;38480;52.724;6.436;2023-07-13T12:47:48;3.38;;;1.50;;
52586;SDS011;38480;52.724;6.436;2023-07-13T12:50:21;6.85;;;1.90;;
52586;SDS011;38480;52.724;6.436;2023-07-13T12:52:56;4.50;;;1.60;;
52586;SDS011;38480;52.724;6.436;2023-07-13T12:55:25;5.38;;;1.70;;
52586;SDS011;38480;52.724;6.436;2023-07-13T12:57:52;4.43;;;1.52;;
52586;SDS011;38480;52.724;6.436;2023-07-13T13:00:29;4.60;;;1.70;;
52586;SDS011;38480;52.724;6.436;2023-07-13T13:02:58;6.65;;;2.03;;
52586;SDS011;38480;52.724;6.436;2023-07-13T13:05:28;6.32;;;1.88;;
52586;SDS011;38480;52.724;6.436;2023-07-13T13:07:55;5.28;;;1.60;;
52586;SDS011;38480;52.724;6.436;2023-07-13T13:10:21;6.00;;;1.60;;
52586;SDS011;38480;52.724;6.436;2023-07-13T13:12:47;5.43;;;1.38;;
52586;SDS011;38480;52.724;6.436;2023-07-13T13:15:13;9.20;;;2.05;;
52586;SDS011;38480;52.724;6.436;2023-07-13T13:17:39;9.38;;;2.08;;
52586;SDS011;38480;52.724;6.436;2023-07-13T13:20:18;6.55;;;1.70;;
52586;SDS011;38480;52.724;6.436;2023-07-13T13:22:44;5.10;;;1.63;;
52586;SDS011;38480;52.724;6.436;2023-07-13T13:25:11;5.15;;;2.03;;
52586;SDS011;38480;52.724;6.436;2023-07-13T13:27:37;3.60;;;1.33;;
52586;SDS011;38480;52.724;6.436;2023-07-13T13:30:09;3.45;;;1.38;;
52586;SDS011;38480;52.724;6.436;2023-07-13T13:35:03;6.47;;;1.50;;
52586;SDS011;38480;52.724;6.436;2023-07-13T13:37:29;2.30;;;1.08;;
52586;SDS011;38480;52.724;6.436;2023-07-13T13:39:55;4.13;;;1.27;;
52586;SDS011;38480;52.724;6.436;2023-07-13T13:42:21;4.40;;;1.88;;
52586;SDS011;38480;52.724;6.436;2023-07-13T13:44:49;4.82;;;1.45;;
52586;SDS011;38480;52.724;6.436;2023-07-13T13:47:31;5.50;;;1.55;;
52586;SDS011;38480;52.724;6.436;2023-07-13T13:49:58;3.65;;;1.33;;
52586;SDS011;38480;52.724;6.436;2023-07-13T13:52:25;6.28;;;2.13;;
52586;SDS011;38480;52.724;6.436;2023-07-13T13:54:51;5.20;;;1.60;;
52586;SDS011;38480;52.724;6.436;2023-07-13T13:57:24;5.32;;;1.60;;
52586;SDS011;38480;52.724;6.436;2023-07-13T13:59:50;5.38;;;1.45;;
52586;SDS011;38480;52.724;6.436;2023-07-13T14:02:27;5.15;;;1.88;;
52586;SDS011;38480;52.724;6.436;2023-07-13T14:04:55;6.65;;;1.30;;
52586;SDS011;38480;52.724;6.436;2023-07-13T14:07:22;3.63;;;0.93;;
52586;SDS011;38480;52.724;6.436;2023-07-13T14:09:48;3.97;;;1.25;;
52586;SDS011;38480;52.724;6.436;2023-07-13T14:12:14;5.43;;;1.70;;
52586;SDS011;38480;52.724;6.436;2023-07-13T14:14:40;5.60;;;1.42;;
52586;SDS011;38480;52.724;6.436;2023-07-13T14:17:18;3.13;;;1.40;;
52586;SDS011;38480;52.724;6.436;2023-07-13T14:19:46;4.15;;;1.40;;
52586;SDS011;38480;52.724;6.436;2023-07-13T14:22:15;4.82;;;1.67;;
52586;SDS011;38480;52.724;6.436;2023-07-13T14:24:41;4.53;;;1.45;;
52586;SDS011;38480;52.724;6.436;2023-07-13T14:27:08;3.97;;;1.50;;
52586;SDS011;38480;52.724;6.436;2023-07-13T14:29:34;3.97;;;1.27;;
52586;SDS011;38480;52.724;6.436;2023-07-13T14:32:01;3.78;;;1.60;;
52586;SDS011;38480;52.724;6.436;2023-07-13T14:34:27;5.25;;;1.90;;
52586;SDS011;38480;52.724;6.436;2023-07-13T14:36:53;4.97;;;1.65;;
52586;SDS011;38480;52.724;6.436;2023-07-13T14:39:20;3.95;;;1.50;;
52586;SDS011;38480;52.724;6.436;2023-07-13T14:41:49;5.65;;;1.50;;
52586;SDS011;38480;52.724;6.436;2023-07-13T14:44:16;4.07;;;1.55;;
52586;SDS011;38480;52.724;6.436;2023-07-13T14:46:42;7.82;;;1.25;;
52586;SDS011;38480;52.724;6.436;2023-07-13T14:51:54;3.80;;;1.65;;
52586;SDS011;38480;52.724;6.436;2023-07-13T14:54:22;4.78;;;1.58;;
52586;SDS011;38480;52.724;6.436;2023-07-13T14:56:48;3.33;;;1.50;;
52586;SDS011;38480;52.724;6.436;2023-07-13T14:59:14;4.78;;;1.60;;
52586;SDS011;38480;52.724;6.436;2023-07-13T15:01:40;3.17;;;1.50;;
52586;SDS011;38480;52.724;6.436;2023-07-13T15:04:07;4.55;;;1.83;;
52586;SDS011;38480;52.724;6.436;2023-07-13T15:06:52;3.38;;;1.52;;
52586;SDS011;38480;52.724;6.436;2023-07-13T15:09:18;4.22;;;1.75;;
52586;SDS011;38480;52.724;6.436;2023-07-13T15:11:44;5.15;;;1.55;;
52586;SDS011;38480;52.724;6.436;2023-07-13T15:14:10;4.13;;;1.63;;
52586;SDS011;38480;52.724;6.436;2023-07-13T15:16:36;4.35;;;1.58;;
52586;SDS011;38480;52.724;6.436;2023-07-13T15:19:02;5.80;;;1.70;;